createdAt,value
2018-04-24T00:00:27.312Z,15.00
2018-04-24T00:02:55.688Z,15.00
2018-04-24T00:05:24.088Z,15.00
2018-04-24T00:07:52.472Z,14.90
2018-04-24T00:10:21.014Z,15.00
2018-04-24T00:12:49.400Z,15.00
2018-04-24T00:15:17.784Z,14.90
2018-04-24T00:17:50.757Z,15.00
2018-04-24T00:20:19.218Z,14.90
2018-04-24T00:22:47.572Z,14.90
2018-04-24T00:25:16.708Z,14.80
2018-04-24T00:27:45.145Z,14.80
2018-04-24T00:30:14.288Z,14.90
2018-04-24T00:32:42.660Z,14.90
2018-04-24T00:35:11.053Z,14.90
2018-04-24T00:37:39.433Z,15.00
2018-04-24T00:40:07.844Z,15.00
2018-04-24T00:42:36.990Z,14.90
2018-04-24T00:45:05.413Z,14.90
2018-04-24T00:47:34.561Z,14.90
2018-04-24T00:50:02.929Z,14.90
2018-04-24T00:52:31.329Z,14.90
2018-04-24T00:54:59.696Z,14.90
2018-04-24T00:57:28.088Z,14.90
2018-04-24T00:59:56.461Z,14.90
2018-04-24T01:02:24.861Z,14.90
2018-04-24T01:04:53.236Z,14.90
2018-04-24T01:07:21.841Z,14.90
2018-04-24T01:09:50.213Z,15.00
2018-04-24T01:12:20.104Z,15.00
2018-04-24T01:14:48.510Z,15.00
2018-04-24T01:17:16.899Z,15.00
2018-04-24T01:19:46.063Z,15.00
2018-04-24T01:22:14.433Z,15.00
2018-04-24T01:24:42.829Z,14.90
2018-04-24T01:27:11.200Z,15.00
2018-04-24T01:29:39.604Z,15.00
2018-04-24T01:32:07.976Z,15.00
2018-04-24T01:34:36.368Z,15.00
2018-04-24T01:37:05.505Z,15.00
2018-04-24T01:39:34.098Z,15.00
2018-04-24T01:42:02.464Z,14.90
2018-04-24T01:44:30.837Z,14.90
2018-04-24T01:46:59.233Z,14.90
2018-04-24T01:49:27.601Z,14.90
2018-04-24T01:51:55.996Z,14.90
2018-04-24T01:54:24.372Z,14.80
2018-04-24T01:56:52.793Z,14.80
2018-04-24T01:59:21.166Z,14.80
2018-04-24T02:01:49.544Z,14.80
2018-04-24T02:04:17.937Z,14.80
2018-04-24T02:06:47.075Z,14.70
2018-04-24T02:09:15.481Z,14.70
2018-04-24T02:11:43.856Z,14.70
2018-04-24T02:14:12.721Z,14.60
2018-04-24T02:16:41.088Z,14.60
2018-04-24T02:19:09.456Z,14.60
2018-04-24T02:21:37.848Z,14.50
2018-04-24T02:24:06.223Z,14.50
2018-04-24T02:26:34.609Z,14.50
2018-04-24T02:29:02.984Z,14.50
2018-04-24T02:31:31.889Z,14.50
2018-04-24T02:34:00.299Z,14.50
2018-04-24T02:36:28.752Z,14.50
2018-04-24T02:38:57.143Z,14.50
2018-04-24T02:41:25.516Z,14.50
2018-04-24T02:43:53.916Z,14.50
2018-04-24T02:46:22.280Z,14.50
2018-04-24T02:48:50.688Z,14.50
2018-04-24T02:51:19.827Z,14.50
2018-04-24T02:53:48.239Z,14.40
2018-04-24T02:56:16.614Z,14.50
2018-04-24T02:58:45.130Z,14.50
2018-04-24T03:01:15.157Z,14.50
2018-04-24T03:03:44.325Z,14.50
2018-04-24T03:06:12.723Z,14.60
2018-04-24T03:08:41.124Z,14.60
2018-04-24T03:11:09.564Z,14.60
2018-04-24T03:13:37.932Z,14.60
2018-04-24T03:16:06.316Z,14.50
2018-04-24T03:18:34.715Z,14.30
2018-04-24T03:21:03.859Z,14.30
2018-04-24T03:23:32.264Z,14.30
2018-04-24T03:26:00.645Z,14.30
2018-04-24T03:28:29.188Z,14.30
2018-04-24T03:30:57.666Z,14.20
2018-04-24T03:33:25.960Z,14.30
2018-04-24T03:35:54.360Z,14.30
2018-04-24T03:38:23.249Z,14.30
2018-04-24T03:40:51.680Z,14.30
2018-04-24T03:43:20.055Z,14.30
2018-04-24T03:45:48.477Z,14.30
2018-04-24T03:48:16.865Z,14.30
2018-04-24T03:50:45.233Z,14.20
2018-04-24T03:53:13.629Z,14.20
2018-04-24T03:55:41.997Z,14.30
2018-04-24T03:58:10.406Z,14.30
2018-04-24T04:00:39.549Z,14.30
2018-04-24T04:03:08.117Z,14.30
2018-04-24T04:05:36.488Z,14.30
2018-04-24T04:08:04.878Z,14.30
2018-04-24T04:10:33.269Z,14.30
2018-04-24T04:13:01.646Z,14.30
2018-04-24T04:15:30.057Z,14.30
2018-04-24T04:18:16.377Z,14.20
2018-04-24T04:21:03.293Z,14.20
2018-04-24T04:23:50.229Z,14.20
2018-04-24T04:26:18.631Z,14.20
2018-04-24T04:28:47.001Z,14.20
2018-04-24T04:31:16.609Z,14.10
2018-04-24T04:33:44.978Z,14.10
2018-04-24T04:36:13.475Z,14.10
2018-04-24T04:38:41.855Z,14.10
2018-04-24T04:41:10.237Z,14.00
2018-04-24T04:43:38.632Z,14.00
2018-04-24T04:46:07.005Z,14.00
2018-04-24T04:48:35.397Z,14.00
2018-04-24T04:51:03.789Z,13.90
2018-04-24T04:53:33.349Z,13.90
2018-04-24T04:56:01.737Z,13.90
2018-04-24T04:58:30.132Z,14.00
2018-04-24T05:00:58.536Z,14.00
2018-04-24T05:03:27.679Z,14.10
2018-04-24T05:05:56.110Z,14.10
2018-04-24T05:08:25.284Z,14.10
2018-04-24T05:10:53.694Z,14.10
2018-04-24T05:13:22.843Z,14.20
2018-04-24T05:15:51.450Z,14.20
2018-04-24T05:18:19.839Z,14.20
2018-04-24T05:20:48.985Z,14.30
2018-04-24T05:23:17.388Z,14.20
2018-04-24T05:25:45.777Z,14.30
2018-04-24T05:28:14.282Z,14.50
2018-04-24T05:30:43.433Z,14.50
2018-04-24T05:33:12.105Z,14.50
2018-04-24T05:35:40.579Z,14.60
2018-04-24T05:38:08.897Z,14.70
2018-04-24T05:40:37.290Z,14.80
2018-04-24T05:43:05.672Z,14.80
2018-04-24T05:45:35.137Z,14.90
2018-04-24T05:48:03.520Z,14.90
2018-04-24T05:50:31.901Z,15.00
2018-04-24T05:53:00.326Z,15.00
2018-04-24T05:55:28.700Z,15.10
2018-04-24T05:57:57.880Z,15.30
2018-04-24T06:00:26.250Z,15.30
2018-04-24T06:02:55.436Z,15.40
2018-04-24T06:05:23.873Z,15.40
2018-04-24T06:07:52.477Z,15.60
2018-04-24T06:10:20.869Z,15.60
2018-04-24T06:12:49.262Z,15.70
2018-04-24T06:15:17.672Z,15.70
2018-04-24T06:17:46.809Z,15.90
2018-04-24T06:20:15.217Z,15.80
2018-04-24T06:22:43.605Z,15.90
2018-04-24T06:25:12.149Z,15.90
2018-04-24T06:27:40.529Z,15.90
2018-04-24T06:30:08.916Z,15.90
2018-04-24T06:32:37.324Z,15.90
2018-04-24T06:35:05.786Z,16.00
2018-04-24T06:37:34.192Z,16.10
2018-04-24T06:40:03.346Z,16.10
2018-04-24T06:42:31.759Z,16.10
2018-04-24T06:45:00.900Z,16.50
2018-04-24T06:47:29.279Z,16.40
2018-04-24T06:49:57.690Z,16.60
2018-04-24T06:52:26.084Z,16.80
2018-04-24T06:54:54.575Z,16.90
2018-04-24T06:57:22.897Z,17.10
2018-04-24T06:59:51.332Z,17.20
2018-04-24T07:02:20.472Z,17.30
2018-04-24T07:04:48.845Z,17.30
2018-04-24T07:07:17.233Z,17.50
2018-04-24T07:09:45.612Z,17.60
2018-04-24T07:12:14.008Z,17.60
2018-04-24T07:14:42.388Z,17.70
2018-04-24T07:17:11.057Z,17.70
2018-04-24T07:19:39.437Z,17.80
2018-04-24T07:22:07.888Z,17.90
2018-04-24T07:24:37.024Z,18.20
2018-04-24T07:27:05.403Z,18.20
2018-04-24T07:29:33.816Z,18.50
2018-04-24T07:32:02.196Z,18.60
2018-04-24T07:34:30.588Z,18.90
2018-04-24T07:36:59.733Z,19.10
2018-04-24T07:39:28.609Z,19.00
2018-04-24T07:41:56.990Z,19.10
2018-04-24T07:44:25.541Z,19.20
2018-04-24T07:46:54.027Z,19.10
2018-04-24T07:49:22.343Z,19.10
2018-04-24T07:51:50.743Z,19.30
2018-04-24T07:54:19.140Z,19.40
2018-04-24T07:56:48.321Z,19.70
2018-04-24T07:59:16.754Z,19.70
2018-04-24T08:01:45.876Z,20.20
2018-04-24T08:04:14.285Z,20.20
2018-04-24T08:06:43.430Z,20.30
2018-04-24T08:09:11.828Z,20.20
2018-04-24T08:11:40.201Z,20.10
2018-04-24T08:14:08.633Z,20.00
2018-04-24T08:16:37.863Z,20.10
2018-04-24T08:19:06.179Z,20.00
2018-04-24T08:21:34.577Z,20.30
2018-04-24T08:24:03.717Z,20.80
2018-04-24T08:26:32.111Z,20.80
2018-04-24T08:29:00.538Z,20.70
2018-04-24T08:31:29.820Z,20.40
2018-04-24T08:33:58.200Z,20.30
2018-04-24T08:36:26.613Z,20.40
2018-04-24T08:38:55.026Z,20.50
2018-04-24T08:41:23.408Z,20.50
2018-04-24T08:43:51.813Z,20.70
2018-04-24T08:46:20.201Z,20.70
2018-04-24T08:48:49.565Z,20.50
2018-04-24T08:51:17.948Z,20.50
2018-04-24T08:53:46.341Z,20.50
2018-04-24T08:56:14.749Z,20.70
2018-04-24T08:58:43.902Z,21.50
2018-04-24T09:01:12.306Z,21.40
2018-04-24T09:03:40.680Z,21.50
2018-04-24T09:06:09.091Z,21.60
2018-04-24T09:08:37.552Z,21.80
2018-04-24T09:11:05.907Z,21.90
2018-04-24T09:13:34.322Z,22.00
2018-04-24T09:16:03.457Z,22.00
2018-04-24T09:18:31.863Z,22.00
2018-04-24T09:21:00.245Z,21.90
2018-04-24T09:23:28.668Z,21.90
2018-04-24T09:25:57.040Z,22.00
2018-04-24T09:28:25.416Z,22.20
2018-04-24T09:30:53.824Z,22.40
2018-04-24T09:33:22.194Z,22.70
2018-04-24T09:35:50.693Z,22.60
2018-04-24T09:38:19.065Z,22.70
2018-04-24T09:40:47.669Z,22.90
2018-04-24T09:43:16.048Z,22.70
2018-04-24T09:45:44.443Z,22.70
2018-04-24T09:48:12.834Z,22.40
2018-04-24T09:50:41.968Z,22.20
2018-04-24T09:53:10.379Z,22.20
2018-04-24T09:55:38.755Z,22.40
2018-04-24T09:58:07.324Z,22.80
2018-04-24T10:00:36.681Z,23.30
2018-04-24T10:03:05.816Z,23.80
2018-04-24T10:05:34.205Z,23.80
2018-04-24T10:08:02.610Z,24.00
2018-04-24T10:10:31.004Z,23.90
2018-04-24T10:13:00.161Z,24.40
2018-04-24T10:15:28.582Z,24.40
2018-04-24T10:17:58.886Z,24.60
2018-04-24T10:20:27.465Z,24.50
2018-04-24T10:22:55.861Z,24.60
2018-04-24T10:25:24.229Z,24.90
2018-04-24T10:27:52.617Z,24.80
2018-04-24T10:30:20.988Z,24.40
2018-04-24T10:32:49.381Z,24.40
2018-04-24T10:35:18.516Z,24.40
2018-04-24T10:37:46.908Z,24.30
2018-04-24T10:40:15.308Z,24.60
2018-04-24T10:42:43.688Z,24.80
2018-04-24T10:45:12.854Z,24.30
2018-04-24T10:47:41.224Z,24.30
2018-04-24T10:50:09.651Z,24.00
2018-04-24T10:52:38.032Z,24.00
2018-04-24T10:55:06.655Z,24.20
2018-04-24T10:57:35.032Z,24.50
2018-04-24T11:00:03.424Z,24.70
2018-04-24T11:02:31.827Z,24.60
2018-04-24T11:05:00.204Z,24.20
2018-04-24T11:07:28.615Z,24.40
2018-04-24T11:09:56.989Z,24.40
2018-04-24T11:12:25.644Z,24.40
2018-04-24T11:14:54.021Z,24.60
2018-04-24T11:17:22.400Z,24.90
2018-04-24T11:19:50.875Z,25.30
2018-04-24T11:22:19.420Z,25.30
2018-04-24T11:24:47.822Z,25.30
2018-04-24T11:27:16.193Z,25.20
2018-04-24T11:29:44.788Z,24.90
2018-04-24T11:32:13.181Z,24.50
2018-04-24T11:34:41.564Z,24.70
2018-04-24T11:37:10.011Z,25.00
2018-04-24T11:39:38.393Z,24.90
2018-04-24T11:42:06.794Z,25.00
2018-04-24T11:44:35.174Z,24.80
2018-04-24T11:47:03.680Z,24.40
2018-04-24T11:49:32.854Z,23.90
2018-04-24T11:52:01.203Z,23.90
2018-04-24T11:54:29.611Z,24.10
2018-04-24T11:56:58.006Z,24.10
2018-04-24T11:59:27.179Z,24.50
2018-04-24T12:01:55.552Z,24.40
2018-04-24T12:04:23.941Z,24.70
2018-04-24T12:06:52.316Z,24.80
2018-04-24T12:09:20.696Z,25.10
2018-04-24T12:11:49.081Z,25.30
2018-04-24T12:14:17.454Z,25.50
2018-04-24T12:16:45.860Z,25.30
2018-04-24T12:19:14.239Z,25.10
2018-04-24T12:21:42.648Z,25.10
2018-04-24T12:24:11.784Z,25.20
2018-04-24T12:26:40.144Z,25.20
2018-04-24T12:29:08.540Z,25.30
2018-04-24T12:31:36.917Z,25.10
2018-04-24T12:34:05.320Z,25.20
2018-04-24T12:36:33.693Z,24.90
2018-04-24T12:39:02.413Z,24.70
2018-04-24T12:41:31.567Z,25.00
2018-04-24T12:43:59.934Z,25.00
2018-04-24T12:46:28.336Z,25.00
2018-04-24T12:48:56.709Z,25.10
2018-04-24T12:51:25.101Z,25.20
2018-04-24T12:53:53.464Z,25.30
2018-04-24T12:56:22.224Z,25.30
2018-04-24T12:58:50.587Z,25.30
2018-04-24T13:01:18.961Z,25.50
2018-04-24T13:03:47.415Z,25.40
2018-04-24T13:06:15.751Z,25.60
2018-04-24T13:08:45.345Z,25.50
2018-04-24T13:11:13.709Z,25.60
2018-04-24T13:13:42.090Z,25.70
2018-04-24T13:16:10.503Z,25.40
2018-04-24T13:18:38.883Z,25.50
2018-04-24T13:21:07.327Z,25.70
2018-04-24T13:23:35.715Z,25.30
2018-04-24T13:26:04.217Z,25.20
2018-04-24T13:28:32.595Z,25.30
2018-04-24T13:31:00.974Z,25.50
2018-04-24T13:33:29.369Z,25.70
2018-04-24T13:35:57.745Z,25.50
2018-04-24T13:38:26.145Z,25.50
2018-04-24T13:40:55.293Z,25.50
2018-04-24T13:43:23.801Z,25.50
2018-04-24T13:45:52.181Z,25.80
2018-04-24T13:48:20.549Z,26.10
2018-04-24T13:50:48.953Z,26.10
2018-04-24T13:53:17.316Z,26.10
2018-04-24T13:55:45.709Z,26.10
2018-04-24T13:58:14.078Z,25.60
2018-04-24T14:00:42.726Z,25.30
2018-04-24T14:03:11.103Z,25.30
2018-04-24T14:05:39.474Z,25.00
2018-04-24T14:08:07.878Z,24.90
2018-04-24T14:10:36.259Z,25.10
2018-04-24T14:13:04.660Z,25.00
2018-04-24T14:15:33.025Z,25.00
2018-04-24T14:18:01.678Z,25.00
2018-04-24T14:20:30.057Z,24.90
2018-04-24T14:22:58.453Z,24.60
2018-04-24T14:25:26.831Z,24.60
2018-04-24T14:27:55.201Z,24.60
2018-04-24T14:30:23.618Z,24.50
2018-04-24T14:32:51.997Z,24.50
2018-04-24T14:35:20.426Z,24.40
2018-04-24T14:37:48.809Z,24.40
2018-04-24T14:40:17.178Z,24.40
2018-04-24T14:42:45.652Z,24.40
2018-04-24T14:45:13.965Z,24.40
2018-04-24T14:47:42.369Z,24.30
2018-04-24T14:50:11.514Z,24.60
2018-04-24T14:52:39.939Z,24.60
2018-04-24T14:55:08.869Z,24.70
2018-04-24T14:57:37.244Z,24.80
2018-04-24T15:00:05.668Z,24.80
2018-04-24T15:02:34.040Z,24.70
2018-04-24T15:05:02.428Z,24.70
2018-04-24T15:07:30.800Z,24.70
2018-04-24T15:09:59.230Z,24.80
2018-04-24T15:12:28.365Z,24.70
2018-04-24T15:14:56.733Z,24.70
2018-04-24T15:17:25.139Z,24.50
2018-04-24T15:19:53.524Z,24.70
2018-04-24T15:22:21.919Z,24.70
2018-04-24T15:24:50.295Z,24.50
2018-04-24T15:27:18.837Z,24.30
2018-04-24T15:29:47.209Z,24.30
2018-04-24T15:32:15.581Z,24.00
2018-04-24T15:34:43.978Z,23.90
2018-04-24T15:37:12.343Z,23.90
2018-04-24T15:39:40.745Z,23.70
2018-04-24T15:42:09.122Z,23.50
2018-04-24T15:44:37.791Z,23.30
2018-04-24T15:47:06.162Z,23.20
2018-04-24T15:49:34.545Z,23.30
2018-04-24T15:52:02.936Z,23.20
2018-04-24T15:54:31.319Z,23.20
2018-04-24T15:56:59.712Z,23.10
2018-04-24T15:59:28.927Z,23.00
2018-04-24T16:01:58.377Z,23.00
2018-04-24T16:04:26.743Z,23.00
2018-04-24T16:06:55.120Z,22.90
2018-04-24T16:09:23.509Z,22.70
2018-04-24T16:11:51.889Z,22.60
2018-04-24T16:14:20.287Z,22.70
2018-04-24T16:16:48.649Z,22.70
2018-04-24T16:19:17.171Z,22.70
2018-04-24T16:21:45.473Z,22.60
2018-04-24T16:24:14.683Z,22.60
2018-04-24T16:26:43.868Z,22.50
2018-04-24T16:29:13.018Z,22.50
2018-04-24T16:31:41.412Z,22.50
2018-04-24T16:34:10.555Z,22.40
2018-04-24T16:36:39.152Z,22.40
2018-04-24T16:39:07.541Z,22.40
2018-04-24T16:41:35.911Z,22.40
2018-04-24T16:44:04.449Z,22.30
2018-04-24T16:46:33.642Z,22.20
2018-04-24T16:49:02.030Z,22.20
2018-04-24T16:51:31.277Z,22.10
2018-04-24T16:53:59.720Z,22.10
2018-04-24T16:56:28.102Z,22.00
2018-04-24T16:58:56.465Z,22.00
2018-04-24T17:01:25.639Z,21.80
2018-04-24T17:03:54.024Z,21.80
2018-04-24T17:06:22.428Z,21.80
2018-04-24T17:08:50.808Z,21.70
2018-04-24T17:11:19.387Z,21.70
2018-04-24T17:13:47.722Z,21.70
2018-04-24T17:16:16.241Z,21.60
2018-04-24T17:18:45.662Z,21.50
2018-04-24T17:21:14.297Z,21.50
2018-04-24T17:23:44.449Z,21.40
2018-04-24T17:26:13.764Z,21.20
2018-04-24T17:28:42.185Z,21.30
2018-04-24T17:31:10.857Z,21.20
2018-04-24T17:33:39.256Z,21.10
2018-04-24T17:36:07.930Z,21.00
2018-04-24T17:38:36.309Z,21.00
2018-04-24T17:41:04.964Z,20.90
2018-04-24T17:43:34.172Z,20.70
2018-04-24T17:46:03.175Z,20.70
2018-04-24T17:48:32.352Z,20.50
2018-04-24T17:51:00.731Z,20.50
2018-04-24T17:53:29.134Z,20.40
2018-04-24T17:55:57.761Z,20.40
2018-04-24T17:58:27.760Z,20.20
2018-04-24T18:00:56.285Z,20.20
2018-04-24T18:03:24.981Z,20.10
2018-04-24T18:05:53.655Z,20.10
2018-04-24T18:08:22.438Z,19.90
2018-04-24T18:10:50.846Z,19.90
2018-04-24T18:13:19.240Z,19.80
2018-04-24T18:15:47.664Z,19.80
2018-04-24T18:18:16.806Z,19.60
2018-04-24T18:20:45.492Z,19.50
2018-04-24T18:23:13.877Z,19.40
2018-04-24T18:25:42.247Z,19.30
2018-04-24T18:28:10.652Z,19.30
2018-04-24T18:30:39.044Z,19.30
2018-04-24T18:33:08.359Z,19.10
2018-04-24T18:35:37.540Z,19.10
2018-04-24T18:38:06.084Z,19.10
2018-04-24T18:40:34.612Z,19.00
2018-04-24T18:43:03.765Z,18.90
2018-04-24T18:45:32.168Z,18.90
2018-04-24T18:48:00.568Z,18.90
2018-04-24T18:50:29.818Z,18.80
2018-04-24T18:52:58.344Z,18.80
2018-04-24T18:55:27.814Z,18.70
2018-04-24T18:57:56.278Z,18.70
2018-04-24T19:00:24.813Z,18.70
2018-04-24T19:02:53.997Z,18.50
2018-04-24T19:05:22.372Z,18.50
2018-04-24T19:07:50.960Z,18.40
2018-04-24T19:10:19.281Z,18.40
2018-04-24T19:12:47.745Z,18.30
2018-04-24T19:15:16.145Z,18.10
2018-04-24T19:17:44.845Z,18.00
2018-04-24T19:20:13.257Z,17.80
2018-04-24T19:22:41.750Z,17.70
2018-04-24T19:25:16.622Z,17.60
2018-04-24T19:27:45.020Z,17.60
2018-04-24T19:30:13.411Z,17.60
2018-04-24T19:32:42.103Z,17.60
2018-04-24T19:35:10.537Z,17.60
2018-04-24T19:37:38.932Z,17.60
2018-04-24T19:40:12.834Z,17.50
2018-04-24T19:42:41.211Z,17.50
2018-04-24T19:45:09.612Z,17.40
2018-04-24T19:47:38.250Z,17.40
2018-04-24T19:50:12.291Z,17.30
2018-04-24T19:52:40.781Z,17.30
2018-04-24T19:55:15.084Z,17.20
2018-04-24T19:57:44.183Z,17.10
2018-04-24T20:00:13.156Z,16.90
2018-04-24T20:02:41.766Z,16.80
2018-04-24T20:05:10.557Z,16.90
2018-04-24T20:07:40.059Z,16.80
2018-04-24T20:10:09.629Z,16.80
2018-04-24T20:12:38.659Z,16.90
2018-04-24T20:15:07.070Z,16.80
2018-04-24T20:17:35.926Z,16.90
2018-04-24T20:20:06.698Z,16.70
2018-04-24T20:22:37.410Z,16.70
2018-04-24T20:25:07.130Z,16.60
2018-04-24T20:27:38.261Z,16.60
2018-04-24T20:30:11.119Z,16.60
2018-04-24T20:32:39.730Z,16.50
2018-04-24T20:35:08.225Z,16.40
2018-04-24T20:37:36.954Z,16.40
2018-04-24T20:40:05.654Z,16.40
2018-04-24T20:42:34.178Z,16.30
2018-04-24T20:45:02.565Z,16.30
2018-04-24T20:47:31.911Z,16.20
2018-04-24T20:50:00.341Z,16.20
2018-04-24T20:52:28.805Z,16.10
2018-04-24T20:54:57.998Z,16.00
2018-04-24T20:57:26.475Z,16.00
2018-04-24T20:59:55.831Z,16.00
2018-04-24T21:02:24.219Z,15.90
2018-04-24T21:04:53.341Z,15.90
2018-04-24T21:07:22.233Z,15.80
2018-04-24T21:09:51.084Z,15.70
2018-04-24T21:12:19.625Z,15.80
2018-04-24T21:14:48.005Z,15.70
2018-04-24T21:17:16.417Z,15.70
2018-04-24T21:19:44.965Z,15.70
2018-04-24T21:22:14.549Z,15.60
2018-04-24T21:24:43.060Z,15.60
2018-04-24T21:27:11.447Z,15.50
2018-04-24T21:29:40.688Z,15.50
2018-04-24T21:32:09.073Z,15.40
2018-04-24T21:34:37.514Z,15.40
2018-04-24T21:37:06.761Z,15.10
2018-04-24T21:39:35.545Z,15.10
2018-04-24T21:42:03.924Z,15.10
2018-04-24T21:44:32.302Z,15.00
2018-04-24T21:47:00.713Z,14.90
2018-04-24T21:49:29.213Z,14.70
2018-04-24T21:51:58.437Z,14.40
2018-04-24T21:54:26.821Z,14.40
2018-04-24T21:56:55.420Z,14.30
2018-04-24T21:59:23.801Z,14.30
2018-04-24T22:01:52.699Z,14.40
2018-04-24T22:04:22.381Z,14.40
2018-04-24T22:06:52.370Z,14.40
2018-04-24T22:09:22.236Z,14.50
2018-04-24T22:11:50.640Z,14.50
2018-04-24T22:14:19.193Z,14.50
2018-04-24T22:16:47.682Z,14.50
2018-04-24T22:19:16.051Z,14.50
2018-04-24T22:21:44.801Z,14.50
2018-04-24T22:24:13.961Z,14.50
2018-04-24T22:26:42.369Z,14.50
2018-04-24T22:29:12.086Z,14.50
2018-04-24T22:31:41.528Z,14.50
2018-04-24T22:34:09.905Z,14.40
2018-04-24T22:36:38.341Z,14.40
2018-04-24T22:39:08.064Z,14.40
2018-04-24T22:41:36.458Z,14.30
2018-04-24T22:44:04.897Z,14.40
2018-04-24T22:46:33.278Z,14.40
2018-04-24T22:49:02.754Z,14.40
2018-04-24T22:51:32.628Z,14.30
2018-04-24T22:54:01.025Z,14.20
2018-04-24T22:56:29.456Z,14.20
2018-04-24T22:58:58.612Z,14.00
2018-04-24T23:01:27.012Z,14.00
2018-04-24T23:03:55.776Z,14.00
2018-04-24T23:06:24.321Z,14.00
2018-04-24T23:08:53.209Z,13.90
2018-04-24T23:11:40.048Z,13.80
2018-04-24T23:14:27.893Z,13.60
2018-04-24T23:17:18.069Z,13.60
2018-04-24T23:20:09.848Z,13.60
2018-04-24T23:22:49.078Z,13.60
2018-04-24T23:25:25.326Z,13.60
2018-04-24T23:28:01.451Z,13.70
2018-04-24T23:30:37.380Z,13.80
2018-04-24T23:33:08.766Z,13.80
2018-04-24T23:35:38.164Z,14.00
2018-04-24T23:38:06.564Z,14.00
2018-04-24T23:40:34.962Z,14.00
2018-04-24T23:43:03.329Z,14.00
2018-04-24T23:45:31.752Z,14.00
2018-04-24T23:48:00.125Z,14.10
2018-04-24T23:50:28.527Z,14.10
2018-04-24T23:52:56.903Z,14.00
2018-04-24T23:55:25.340Z,14.00
2018-04-24T23:57:53.721Z,14.00
